createdAt,value
2018-07-28T00:00:23.242Z,7.58
2018-07-28T00:02:52.809Z,8.25
2018-07-28T00:05:21.576Z,7.95
2018-07-28T00:07:50.290Z,9.13
2018-07-28T00:10:19.701Z,8.30
2018-07-28T00:12:48.351Z,8.00
2018-07-28T00:15:17.195Z,8.37
2018-07-28T00:17:45.776Z,7.60
2018-07-28T00:20:14.365Z,7.20
2018-07-28T00:22:43.001Z,8.67
2018-07-28T00:25:12.655Z,7.62
2018-07-28T00:27:41.695Z,7.80
2018-07-28T00:30:12.168Z,8.37
2018-07-28T00:32:41.062Z,7.83
2018-07-28T00:35:09.792Z,7.40
2018-07-28T00:37:38.545Z,8.30
2018-07-28T00:40:07.596Z,7.73
2018-07-28T00:42:37.311Z,8.28
2018-07-28T00:45:06.304Z,8.13
2018-07-28T00:47:35.465Z,8.77
2018-07-28T00:50:04.840Z,8.07
2018-07-28T00:52:33.508Z,8.20
2018-07-28T00:55:02.772Z,7.30
2018-07-28T00:57:31.362Z,9.27
2018-07-28T01:00:00.767Z,8.23
2018-07-28T01:02:29.690Z,8.40
2018-07-28T01:04:58.361Z,8.80
2018-07-28T01:07:26.931Z,7.87
2018-07-28T01:09:55.526Z,7.57
2018-07-28T01:12:24.276Z,8.40
2018-07-28T01:14:52.945Z,8.37
2018-07-28T01:17:21.684Z,8.50
2018-07-28T01:19:50.336Z,7.58
2018-07-28T01:22:19.252Z,9.10
2018-07-28T01:24:47.905Z,7.73
2018-07-28T01:27:16.431Z,8.57
2018-07-28T01:29:45.082Z,8.35
2018-07-28T01:32:13.576Z,7.80
2018-07-28T01:34:42.146Z,8.63
2018-07-28T01:37:10.721Z,8.60
2018-07-28T01:39:39.315Z,8.20
2018-07-28T01:42:07.910Z,8.67
2018-07-28T01:44:36.636Z,7.93
2018-07-28T01:47:05.226Z,8.23
2018-07-28T01:49:33.959Z,8.00
2018-07-28T01:52:02.493Z,8.03
2018-07-28T01:54:31.145Z,8.40
2018-07-28T01:56:59.821Z,8.90
2018-07-28T01:59:28.387Z,8.53
2018-07-28T02:01:56.977Z,8.40
2018-07-28T02:04:25.626Z,8.33
2018-07-28T02:06:54.260Z,8.77
2018-07-28T02:09:22.960Z,8.97
2018-07-28T02:11:51.566Z,7.83
2018-07-28T02:14:20.628Z,9.03
2018-07-28T02:16:49.366Z,8.50
2018-07-28T02:19:17.963Z,8.58
2018-07-28T02:21:46.672Z,8.30
2018-07-28T02:24:15.475Z,8.10
2018-07-28T02:26:44.212Z,8.43
2018-07-28T02:29:12.926Z,8.40
2018-07-28T02:31:42.218Z,7.60
2018-07-28T02:34:10.850Z,8.50
2018-07-28T02:36:39.609Z,8.83
2018-07-28T02:39:10.997Z,8.40
2018-07-28T02:41:40.120Z,9.10
2018-07-28T02:44:09.089Z,8.40
2018-07-28T02:46:38.054Z,7.83
2018-07-28T02:49:07.272Z,8.23
2018-07-28T02:51:35.865Z,8.50
2018-07-28T02:54:04.423Z,8.20
2018-07-28T02:56:33.053Z,8.78
2018-07-28T02:59:01.732Z,8.37
2018-07-28T03:01:31.061Z,9.50
2018-07-28T03:04:00.238Z,9.10
2018-07-28T03:06:29.357Z,8.00
2018-07-28T03:08:58.601Z,8.33
2018-07-28T03:11:28.107Z,8.33
2018-07-28T03:13:57.342Z,8.87
2018-07-28T03:16:26.274Z,9.40
2018-07-28T03:18:54.902Z,9.00
2018-07-28T03:21:23.457Z,8.60
2018-07-28T03:23:52.013Z,9.03
2018-07-28T03:26:20.611Z,7.70
2018-07-28T03:28:49.151Z,10.18
2018-07-28T03:31:17.794Z,8.57
2018-07-28T03:33:46.367Z,8.50
2018-07-28T03:36:15.146Z,8.93
2018-07-28T03:38:43.718Z,9.07
2018-07-28T03:41:12.343Z,10.00
2018-07-28T03:43:40.973Z,9.63
2018-07-28T03:46:09.528Z,9.80
2018-07-28T03:48:38.108Z,9.23
2018-07-28T03:51:06.693Z,8.97
2018-07-28T03:53:36.029Z,9.00
2018-07-28T03:56:04.674Z,8.80
2018-07-28T03:58:33.895Z,8.63
2018-07-28T04:01:02.626Z,9.50
2018-07-28T04:03:31.238Z,9.10
2018-07-28T04:05:59.826Z,8.90
2018-07-28T04:08:28.448Z,8.60
2018-07-28T04:10:57.647Z,9.33
2018-07-28T04:13:26.211Z,7.77
2018-07-28T04:15:54.871Z,8.70
2018-07-28T04:18:23.707Z,8.20
2018-07-28T04:20:52.322Z,11.70
2018-07-28T04:23:20.884Z,17.70
2018-07-28T04:25:49.408Z,9.73
2018-07-28T04:28:18.009Z,8.97
2018-07-28T04:30:47.372Z,8.55
2018-07-28T04:33:15.892Z,7.93
2018-07-28T04:35:45.217Z,8.20
2018-07-28T04:38:13.899Z,7.55
2018-07-28T04:40:42.441Z,8.20
2018-07-28T04:43:11.062Z,7.90
2018-07-28T04:45:39.632Z,8.30
2018-07-28T04:48:08.229Z,8.03
2018-07-28T04:50:36.807Z,8.53
2018-07-28T04:53:05.479Z,8.17
2018-07-28T04:55:34.083Z,7.50
2018-07-28T04:58:02.862Z,8.17
2018-07-28T05:00:31.703Z,8.30
2018-07-28T05:03:00.377Z,7.60
2018-07-28T05:05:29.034Z,8.00
2018-07-28T05:07:57.589Z,7.90
2018-07-28T05:10:26.237Z,8.43
2018-07-28T05:12:55.526Z,7.63
2018-07-28T05:15:24.194Z,8.20
2018-07-28T05:17:52.742Z,11.77
2018-07-28T05:20:21.378Z,8.80
2018-07-28T05:22:49.973Z,11.87
2018-07-28T05:25:18.534Z,8.90
2018-07-28T05:27:47.100Z,8.23
2018-07-28T05:30:15.647Z,9.30
2018-07-28T05:32:44.275Z,8.47
2018-07-28T05:35:12.959Z,9.10
2018-07-28T05:37:41.711Z,10.80
2018-07-28T05:40:10.355Z,10.03
2018-07-28T05:42:39.163Z,8.93
2018-07-28T05:45:08.297Z,9.10
2018-07-28T05:47:37.053Z,8.70
2018-07-28T05:50:06.521Z,9.20
2018-07-28T05:52:35.098Z,8.50
2018-07-28T05:55:03.818Z,8.60
2018-07-28T05:57:32.498Z,8.80
2018-07-28T06:00:02.026Z,8.67
2018-07-28T06:02:30.678Z,31.83
2018-07-28T06:04:59.269Z,17.03
2018-07-28T06:07:28.608Z,12.40
2018-07-28T06:09:57.884Z,9.27
2018-07-28T06:12:26.489Z,10.30
2018-07-28T06:14:56.503Z,8.90
2018-07-28T06:17:25.218Z,6.60
2018-07-28T06:19:53.998Z,6.50
2018-07-28T06:22:22.802Z,6.40
2018-07-28T06:24:51.459Z,6.15
2018-07-28T06:27:20.283Z,6.10
2018-07-28T06:29:49.518Z,6.00
2018-07-28T06:32:18.780Z,5.10
2018-07-28T06:34:47.632Z,5.90
2018-07-28T06:37:16.199Z,9.73
2018-07-28T06:39:44.807Z,6.27
2018-07-28T06:42:13.442Z,5.60
2018-07-28T06:44:42.039Z,5.07
2018-07-28T06:47:10.791Z,4.30
2018-07-28T06:49:39.383Z,3.60
2018-07-28T06:52:07.988Z,3.80
2018-07-28T06:54:36.608Z,3.83
2018-07-28T06:57:05.255Z,3.90
2018-07-28T06:59:33.896Z,3.50
2018-07-28T07:02:02.524Z,3.17
2018-07-28T07:04:32.065Z,4.63
2018-07-28T07:07:01.110Z,7.57
2018-07-28T07:09:30.366Z,3.73
2018-07-28T07:11:59.537Z,4.20
2018-07-28T07:14:28.262Z,5.57
2018-07-28T07:16:57.055Z,6.03
2018-07-28T07:19:25.744Z,5.47
2018-07-28T07:21:54.413Z,4.80
2018-07-28T07:24:23.924Z,5.50
2018-07-28T07:26:52.587Z,4.87
2018-07-28T07:29:21.190Z,10.00
2018-07-28T07:31:50.563Z,8.27
2018-07-28T07:34:19.253Z,7.57
2018-07-28T07:36:47.844Z,7.87
2018-07-28T07:39:16.494Z,5.85
2018-07-28T07:41:45.309Z,4.90
2018-07-28T07:44:14.563Z,12.10
2018-07-28T07:46:43.818Z,6.83
2018-07-28T07:49:12.819Z,5.40
2018-07-28T07:51:41.580Z,6.50
2018-07-28T07:54:10.333Z,5.10
2018-07-28T07:56:38.948Z,6.00
2018-07-28T07:59:08.973Z,6.10
2018-07-28T08:01:38.079Z,6.10
2018-07-28T08:04:06.979Z,6.07
2018-07-28T08:06:35.884Z,6.53
2018-07-28T08:09:06.588Z,6.67
2018-07-28T08:11:35.953Z,6.20
2018-07-28T08:14:05.102Z,6.03
2018-07-28T08:16:34.068Z,6.20
2018-07-28T08:19:02.876Z,6.17
2018-07-28T08:21:31.932Z,5.97
2018-07-28T08:24:00.798Z,6.00
2018-07-28T08:26:29.494Z,6.47
2018-07-28T08:28:58.480Z,6.30
2018-07-28T08:31:27.418Z,6.80
2018-07-28T08:33:56.065Z,7.17
2018-07-28T08:36:25.041Z,6.20
2018-07-28T08:38:53.783Z,6.20
2018-07-28T08:41:22.825Z,6.63
2018-07-28T08:43:51.443Z,6.07
2018-07-28T08:46:20.220Z,6.50
2018-07-28T08:48:48.951Z,6.60
2018-07-28T08:51:17.665Z,6.63
2018-07-28T08:53:46.235Z,7.10
2018-07-28T08:56:15.084Z,7.03
2018-07-28T08:58:44.443Z,6.40
2018-07-28T09:01:13.099Z,5.77
2018-07-28T09:03:41.787Z,6.63
2018-07-28T09:06:10.460Z,6.90
2018-07-28T09:08:39.018Z,5.87
2018-07-28T09:11:07.700Z,6.37
2018-07-28T09:13:36.443Z,6.30
2018-07-28T09:16:05.193Z,5.90
2018-07-28T09:18:33.835Z,4.93
2018-07-28T09:21:02.606Z,5.67
2018-07-28T09:23:31.210Z,4.70
2018-07-28T09:25:59.824Z,3.92
2018-07-28T09:28:28.441Z,2.80
2018-07-28T09:30:57.494Z,2.92
2018-07-28T09:33:26.106Z,2.83
2018-07-28T09:35:54.800Z,2.60
2018-07-28T09:38:23.360Z,2.02
2018-07-28T09:40:51.977Z,2.05
2018-07-28T09:43:20.600Z,2.10
2018-07-28T09:45:49.338Z,2.37
2018-07-28T09:48:17.928Z,3.67
2018-07-28T09:50:46.536Z,2.17
2018-07-28T09:53:15.305Z,2.05
2018-07-28T09:55:44.919Z,2.30
2018-07-28T09:58:14.341Z,2.65
2018-07-28T10:00:48.319Z,2.60
2018-07-28T10:03:23.846Z,2.80
2018-07-28T10:05:52.481Z,3.25
2018-07-28T10:08:21.092Z,3.23
2018-07-28T10:10:49.778Z,3.57
2018-07-28T10:13:18.478Z,3.00
2018-07-28T10:15:47.201Z,3.40
2018-07-28T10:18:15.774Z,2.97
2018-07-28T10:20:44.446Z,3.43
2018-07-28T10:23:13.059Z,3.87
2018-07-28T10:25:41.800Z,3.70
2018-07-28T10:28:10.435Z,3.53
2018-07-28T10:30:39.290Z,3.73
2018-07-28T10:33:08.859Z,3.73
2018-07-28T10:35:37.535Z,3.70
2018-07-28T10:38:06.340Z,3.50
2018-07-28T10:40:35.756Z,3.93
2018-07-28T10:43:05.080Z,3.60
2018-07-28T10:45:33.983Z,3.65
2018-07-28T10:48:02.821Z,3.50
2018-07-28T10:50:31.453Z,3.30
2018-07-28T10:53:00.140Z,3.13
2018-07-28T10:55:28.932Z,3.47
2018-07-28T10:57:57.576Z,3.10
2018-07-28T11:00:26.494Z,3.10
2018-07-28T11:02:55.080Z,2.83
2018-07-28T11:05:23.798Z,2.90
2018-07-28T11:07:52.361Z,2.70
2018-07-28T11:10:21.105Z,2.43
2018-07-28T11:12:49.813Z,2.53
2018-07-28T11:15:18.644Z,2.60
2018-07-28T11:17:47.279Z,2.60
2018-07-28T11:20:15.943Z,3.20
2018-07-28T11:22:45.442Z,2.70
2018-07-28T11:25:14.904Z,3.00
2018-07-28T11:27:43.569Z,2.60
2018-07-28T11:30:13.134Z,3.23
2018-07-28T11:32:52.973Z,3.13
2018-07-28T11:35:32.646Z,2.60
2018-07-28T11:38:41.785Z,3.10
2018-07-28T11:41:21.459Z,2.97
2018-07-28T11:44:01.166Z,2.80
2018-07-28T11:46:30.575Z,2.87
2018-07-28T11:48:59.223Z,3.13
2018-07-28T11:51:27.879Z,2.60
2018-07-28T11:53:56.567Z,2.50
2018-07-28T11:56:25.298Z,2.43
2018-07-28T11:58:53.932Z,3.90
2018-07-28T12:01:22.776Z,3.37
2018-07-28T12:03:51.447Z,3.17
2018-07-28T12:06:20.187Z,3.40
2018-07-28T12:08:48.869Z,2.83
2018-07-28T12:11:17.756Z,3.40
2018-07-28T12:13:46.459Z,3.40
2018-07-28T12:16:15.306Z,3.10
2018-07-28T12:18:43.902Z,3.07
2018-07-28T12:21:12.621Z,2.70
2018-07-28T12:23:41.270Z,4.30
2018-07-28T12:26:10.134Z,3.20
2018-07-28T12:28:39.814Z,2.87
2018-07-28T12:31:08.616Z,3.00
2018-07-28T12:33:38.105Z,3.40
2018-07-28T12:36:07.315Z,3.07
2018-07-28T12:38:36.891Z,3.40
2018-07-28T12:41:05.605Z,3.23
2018-07-28T12:43:34.156Z,2.73
2018-07-28T12:46:02.980Z,3.40
2018-07-28T12:48:31.609Z,2.90
2018-07-28T12:51:00.422Z,3.27
2018-07-28T12:53:29.076Z,3.57
2018-07-28T12:55:57.731Z,3.20
2018-07-28T12:58:26.335Z,3.07
2018-07-28T13:00:55.012Z,3.57
2018-07-28T13:03:23.636Z,3.47
2018-07-28T13:05:52.384Z,3.65
2018-07-28T13:08:21.066Z,3.53
2018-07-28T13:10:49.713Z,3.77
2018-07-28T13:13:18.681Z,4.00
2018-07-28T13:15:47.324Z,3.73
2018-07-28T13:18:15.964Z,4.80
2018-07-28T13:20:44.522Z,3.50
2018-07-28T13:23:13.411Z,3.73
2018-07-28T13:25:42.054Z,3.33
2018-07-28T13:28:10.736Z,3.43
2018-07-28T13:30:39.307Z,3.43
2018-07-28T13:33:08.656Z,3.03
2018-07-28T13:35:37.254Z,4.10
2018-07-28T13:38:05.903Z,4.03
2018-07-28T13:40:35.253Z,3.70
2018-07-28T13:43:03.997Z,3.87
2018-07-28T13:45:32.597Z,3.20
2018-07-28T13:48:01.940Z,3.63
2018-07-28T13:50:30.845Z,3.40
2018-07-28T13:52:59.877Z,4.53
2018-07-28T13:55:29.424Z,3.83
2018-07-28T13:57:58.321Z,3.77
2018-07-28T14:00:28.259Z,4.13
2018-07-28T14:02:56.829Z,3.27
2018-07-28T14:05:25.444Z,3.57
2018-07-28T14:07:54.114Z,3.50
2018-07-28T14:10:22.820Z,3.67
2018-07-28T14:12:51.435Z,4.77
2018-07-28T14:15:20.406Z,3.93
2018-07-28T14:17:49.156Z,4.30
2018-07-28T14:20:18.655Z,3.77
2018-07-28T14:22:47.448Z,4.67
2018-07-28T14:25:16.184Z,3.60
2018-07-28T14:27:44.816Z,3.97
2018-07-28T14:30:13.654Z,3.80
2018-07-28T14:32:42.368Z,3.47
2018-07-28T14:35:11.092Z,3.97
2018-07-28T14:37:40.556Z,3.80
2018-07-28T14:40:09.225Z,3.77
2018-07-28T14:42:37.884Z,4.10
2018-07-28T14:45:08.497Z,4.70
2018-07-28T14:47:37.210Z,4.00
2018-07-28T14:50:06.755Z,4.80
2018-07-28T14:52:35.808Z,4.28
2018-07-28T14:55:04.920Z,4.00
2018-07-28T14:57:33.665Z,4.23
2018-07-28T15:00:02.342Z,5.47
2018-07-28T15:02:31.156Z,4.20
2018-07-28T15:04:59.775Z,4.80
2018-07-28T15:07:28.484Z,4.30
2018-07-28T15:09:56.999Z,5.40
2018-07-28T15:12:25.596Z,5.00
2018-07-28T15:14:55.035Z,4.80
2018-07-28T15:17:25.169Z,4.80
2018-07-28T15:19:53.791Z,4.87
2018-07-28T15:22:22.474Z,5.10
2018-07-28T15:24:51.798Z,5.00
2018-07-28T15:27:20.388Z,5.10
2018-07-28T15:29:49.101Z,4.80
2018-07-28T15:32:17.718Z,5.20
2018-07-28T15:34:46.365Z,5.43
2018-07-28T15:37:15.030Z,4.70
2018-07-28T15:39:43.659Z,4.80
2018-07-28T15:42:12.390Z,5.60
2018-07-28T15:44:40.975Z,5.07
2018-07-28T15:47:09.714Z,5.40
2018-07-28T15:49:39.180Z,4.90
2018-07-28T15:52:07.814Z,4.93
2018-07-28T15:54:36.466Z,5.53
2018-07-28T15:57:05.614Z,5.33
2018-07-28T15:59:34.344Z,5.07
2018-07-28T16:02:03.084Z,13.43
2018-07-28T16:04:31.835Z,4.93
2018-07-28T16:07:00.541Z,5.30
2018-07-28T16:09:29.230Z,5.23
2018-07-28T16:11:57.930Z,5.37
2018-07-28T16:14:26.549Z,5.60
2018-07-28T16:16:55.745Z,6.17
2018-07-28T16:19:24.879Z,5.40
2018-07-28T16:21:53.540Z,6.00
2018-07-28T16:24:22.254Z,5.80
2018-07-28T16:26:50.953Z,5.93
2018-07-28T16:29:19.555Z,5.60
2018-07-28T16:31:48.165Z,6.03
2018-07-28T16:34:16.785Z,5.57
2018-07-28T16:36:45.500Z,6.03
2018-07-28T16:39:14.835Z,6.00
2018-07-28T16:41:44.043Z,6.70
2018-07-28T16:44:12.639Z,6.50
2018-07-28T16:46:41.412Z,6.53
2018-07-28T16:49:10.875Z,6.80
2018-07-28T16:51:40.034Z,6.60
2018-07-28T16:54:08.733Z,9.97
2018-07-28T16:56:38.230Z,7.40
2018-07-28T16:59:07.745Z,6.70
2018-07-28T17:01:36.564Z,6.83
2018-07-28T17:04:05.801Z,6.97
2018-07-28T17:06:35.247Z,13.00
2018-07-28T17:09:05.644Z,7.50
2018-07-28T17:11:35.719Z,6.80
2018-07-28T17:14:04.440Z,7.53
2018-07-28T17:16:34.095Z,7.90
2018-07-28T17:19:03.585Z,6.30
2018-07-28T17:21:32.394Z,7.40
2018-07-28T17:24:01.294Z,7.80
2018-07-28T17:26:30.074Z,8.17
2018-07-28T17:28:59.116Z,8.70
2018-07-28T17:31:27.850Z,10.90
2018-07-28T17:33:56.534Z,9.13
2018-07-28T17:36:25.187Z,12.77
2018-07-28T17:38:54.080Z,57.13
2018-07-28T17:41:22.694Z,24.30
2018-07-28T17:43:51.538Z,27.10
2018-07-28T17:46:20.247Z,14.70
2018-07-28T17:48:49.035Z,27.40
2018-07-28T17:51:18.329Z,19.67
2018-07-28T17:53:47.169Z,14.07
2018-07-28T17:56:15.853Z,11.20
2018-07-28T17:58:44.655Z,15.97
2018-07-28T18:01:13.362Z,15.80
2018-07-28T18:03:42.193Z,14.50
2018-07-28T18:06:10.908Z,8.77
2018-07-28T18:08:39.756Z,8.70
2018-07-28T18:11:08.519Z,7.80
2018-07-28T18:13:37.271Z,7.85
2018-07-28T18:16:06.756Z,10.30
2018-07-28T18:18:36.825Z,8.37
2018-07-28T18:21:06.174Z,14.33
2018-07-28T18:23:34.871Z,6.97
2018-07-28T18:26:03.541Z,13.07
2018-07-28T18:28:32.218Z,34.53
2018-07-28T18:31:00.899Z,59.23
2018-07-28T18:33:30.131Z,18.73
2018-07-28T18:35:59.515Z,16.73
2018-07-28T18:38:28.222Z,9.93
2018-07-28T18:40:57.462Z,9.50
2018-07-28T18:43:26.148Z,7.20
2018-07-28T18:45:55.007Z,11.20
2018-07-28T18:48:23.644Z,14.67
2018-07-28T18:50:52.393Z,20.90
2018-07-28T18:53:22.037Z,17.80
2018-07-28T18:55:51.056Z,25.90
2018-07-28T18:58:20.730Z,18.03
2018-07-28T19:00:49.944Z,28.03
2018-07-28T19:03:18.740Z,21.53
2018-07-28T19:05:48.179Z,9.77
2018-07-28T19:08:17.524Z,14.73
2018-07-28T19:10:46.220Z,13.30
2018-07-28T19:14:22.590Z,11.53
2018-07-28T19:16:51.370Z,10.03
2018-07-28T19:19:20.471Z,9.63
2018-07-28T19:21:49.207Z,7.20
2018-07-28T19:24:17.912Z,7.10
2018-07-28T19:26:47.228Z,7.00
2018-07-28T19:29:21.105Z,7.20
2018-07-28T19:31:49.739Z,7.53
2018-07-28T19:34:18.506Z,7.20
2018-07-28T19:36:52.764Z,7.60
2018-07-28T19:39:22.274Z,7.13
2018-07-28T19:41:56.250Z,7.73
2018-07-28T19:44:24.984Z,7.20
2018-07-28T19:46:53.585Z,7.10
2018-07-28T19:49:22.262Z,12.70
2018-07-28T19:51:51.036Z,10.10
2018-07-28T19:54:19.743Z,11.47
2018-07-28T19:56:48.547Z,10.20
2018-07-28T19:59:17.685Z,8.50
2018-07-28T20:01:47.142Z,7.23
2018-07-28T20:04:15.907Z,7.37
2018-07-28T20:06:45.414Z,7.43
2018-07-28T20:09:14.122Z,7.83
2018-07-28T20:11:42.953Z,8.80
2018-07-28T20:14:11.821Z,8.85
2018-07-28T20:16:40.490Z,7.90
2018-07-28T20:19:09.203Z,9.40
2018-07-28T20:21:38.486Z,8.10
2018-07-28T20:24:07.266Z,8.63
2018-07-28T20:26:36.071Z,7.90
2018-07-28T20:29:04.744Z,8.73
2018-07-28T20:31:33.651Z,9.40
2018-07-28T20:34:03.095Z,8.87
2018-07-28T20:36:31.860Z,9.43
2018-07-28T20:39:00.480Z,11.73
2018-07-28T20:41:29.260Z,32.20
2018-07-28T20:43:58.827Z,12.27
2018-07-28T20:46:27.545Z,8.33
2018-07-28T20:48:56.413Z,9.10
2018-07-28T20:51:25.065Z,8.37
2018-07-28T20:53:53.753Z,7.90
2018-07-28T20:56:22.541Z,7.77
2018-07-28T20:58:51.272Z,8.00
2018-07-28T21:01:19.931Z,8.03
2018-07-28T21:03:48.773Z,8.30
2018-07-28T21:06:17.662Z,7.97
2018-07-28T21:08:47.221Z,7.80
2018-07-28T21:11:16.982Z,8.50
2018-07-28T21:13:45.612Z,10.33
2018-07-28T21:16:14.239Z,9.93
2018-07-28T21:18:43.040Z,9.87
2018-07-28T21:21:11.743Z,8.63
2018-07-28T21:23:40.577Z,8.13
2018-07-28T21:26:09.947Z,8.80
2018-07-28T21:28:38.658Z,9.00
2018-07-28T21:31:07.448Z,8.87
2018-07-28T21:33:36.261Z,9.70
2018-07-28T21:36:04.951Z,8.93
2018-07-28T21:38:33.707Z,8.97
2018-07-28T21:41:02.458Z,8.50
2018-07-28T21:43:31.323Z,9.25
2018-07-28T21:46:00.166Z,9.53
2018-07-28T21:48:28.857Z,9.10
2018-07-28T21:50:58.106Z,8.70
2018-07-28T21:53:31.167Z,8.83
2018-07-28T21:56:00.069Z,10.07
2018-07-28T21:58:29.298Z,9.97
2018-07-28T22:01:05.114Z,10.40
2018-07-28T22:03:34.152Z,10.53
2018-07-28T22:06:02.900Z,8.80
2018-07-28T22:08:31.505Z,8.40
2018-07-28T22:11:00.541Z,8.40
2018-07-28T22:13:29.369Z,12.03
2018-07-28T22:15:58.150Z,11.10
2018-07-28T22:18:26.791Z,11.57
2018-07-28T22:20:55.582Z,10.27
2018-07-28T22:23:24.471Z,11.25
2018-07-28T22:25:54.031Z,10.93
2018-07-28T22:28:23.870Z,10.20
2018-07-28T22:30:53.080Z,9.70
2018-07-28T22:33:21.732Z,9.57
2018-07-28T22:35:50.475Z,9.57
2018-07-28T22:38:19.142Z,9.60
2018-07-28T22:40:48.418Z,9.88
2018-07-28T22:43:17.127Z,11.37
2018-07-28T22:45:45.870Z,10.03
2018-07-28T22:48:14.548Z,9.90
2018-07-28T22:50:43.321Z,10.00
2018-07-28T22:53:12.110Z,10.10
2018-07-28T22:55:41.720Z,10.50
2018-07-28T22:58:10.367Z,10.03
2018-07-28T23:00:39.128Z,9.27
2018-07-28T23:03:07.901Z,10.83
2018-07-28T23:05:36.607Z,10.50
2018-07-28T23:08:05.207Z,9.77
2018-07-28T23:10:33.871Z,10.07
2018-07-28T23:13:03.352Z,10.00
2018-07-28T23:15:32.113Z,10.07
2018-07-28T23:18:00.800Z,9.90
2018-07-28T23:20:29.747Z,9.80
2018-07-28T23:22:58.429Z,9.60
2018-07-28T23:25:26.995Z,10.10
2018-07-28T23:27:55.766Z,10.40
2018-07-28T23:30:24.437Z,9.80
2018-07-28T23:32:53.231Z,10.13
2018-07-28T23:35:21.892Z,9.70
2018-07-28T23:37:50.559Z,9.90
2018-07-28T23:40:19.152Z,9.63
2018-07-28T23:42:47.861Z,9.53
2018-07-28T23:45:16.558Z,10.37
2018-07-28T23:47:45.130Z,10.30
2018-07-28T23:50:13.886Z,9.40
2018-07-28T23:52:43.323Z,8.60
2018-07-28T23:55:12.041Z,9.03
2018-07-28T23:57:41.387Z,9.40
